Detall de PIREP

Printer-friendly versionPDF version

[2014/03/02 09:58:00]
Flight IATA:CT1004
Pilot Number:012
Company ICAO:CAT
Aircraft Type:C750/F
PAX:4
Departing Airport: LEBL
Destination Airport: LPFR
Alternate Airport:LPPT
Online: VATSIM
Route:LOTOS UM985 MAMIS UT245 KUKAL UN747 SVL/N0440F230 R47 NAPES Y136 NIRAK
Flight Level:F490
No Slew and time accel
No pause
Crash detect
Detect pilot in Cockpit between each 30 and 45 minutes
09:58 Zero fuel Weight: 22914 Lbs, Fuel Weight: 5842 Lbs
09:58 VATSIM:LEBL 020930Z 33005KT 260V050 9999 FEW030 11/05 Q1004 NOSIG
09:58 VATSIM:LPFR 020930Z 30017KT 9999 SCT012 16/13 Q1017
09:58 VOICE CATALONIAN / MWC 2014 BARCELONA CHARTER
09:58 Parking Brakes off
10:04 Take-off
10:04 Take off Weight: 28672 Lbs
10:04 Wind: 328º @ 005 Knots Heading: 246º
10:04 POS N41º 17´ 13´´ E002º 05´ 17´´
10:04 Gear Up: 156 Knots
10:04 Flaps:3 at 156 Knots
10:05 Flaps:2 at 176 Knots
10:05 Flaps:0 at 195 Knots
10:19 Wind:328º@058 Knots Heading: 233º Ground Speed: 500 Knots Altitude 46266 ft
10:20 TOC
10:20 Fuel Weight: 5143 Lb
10:34 Wind:324º@038 Knots Heading: 236º Ground Speed: 483 Knots Altitude 48868 ft
10:49 Wind:329º@032 Knots Heading: 269º Ground Speed: 466 Knots Altitude 49002 ft
10:56 TOD
10:56 Fuel Weight: 4651 Lb
11:04 Wind:315º@046 Knots Heading: 261º Ground Speed: 466 Knots Altitude 29744 ft
11:19 Wind:320º@027 Knots Heading: 224º Ground Speed: 261 Knots Altitude 5065 ft
11:21 Flaps:2 at 184 Knots
11:21 Flaps:3 at 176 Knots
11:21 Gear Down: 175 Knots
11:21 Flaps:4 at 162 Knots
11:23 Flaps:5 at 144 Knots
11:26 TouchDown:Rate -392 ft/min Speed: 126 Knots
11:26 VATSIM:LPFR 021100Z 25012KT 9999 BKN016 16/14 Q1018
11:26 Land
11:26 Wind:302º@012 Knots
11:26 Heading: 282º
11:26 Flight Duration: 01:22
11:26 Landing Weight: 27195 Lbs
11:26 POS N37º 00´ 57´´ W007º 58´ 32´´
11:28 Parking brakes on
11:28 Block to Block Duration: 01:30
11:28 Final Fuel: 4259 Lbls
11:28 Spent Fuel: 1582 Lbls
11:28 Flight Length: 564 NM
11:28 TOD Land Length: 162 NM

Exportar CSV

Powered by Drupal - Modified by Danger4k